Time;durP1;ratioP1;P1;durP2;ratioP2;P2;SDS_P1;SDS_P2;PMS_P1;PMS_P2;Temp;Humidity;BMP_temperature;BMP_pressure;BME280_temperature;BME280_humidity;BME280_pressure;Samples;Min_cycle;Max_cycle;Signal;HPM_P1;HPM_P2
2021/04/27 00:01:36;;;;;;;;;;;13.80;99.90;;;13.30;100.00;99640.63;5053709;28;20247;-61
2021/04/27 00:04:04;;;;;;;;;;;13.80;99.90;;;13.30;100.00;99627.06;5054491;28;19925;-62
2021/04/27 00:06:32;;;;;;;;;;;13.80;99.90;;;13.35;100.00;99634.97;5054695;28;20048;-61
2021/04/27 00:08:59;;;;;;;;;;;13.90;99.90;;;13.33;100.00;99626.38;5054149;28;19925;-62
2021/04/27 00:11:27;;;;;;;;;;;13.90;99.90;;;13.37;100.00;99630.03;5053474;28;19925;-62
2021/04/27 00:13:54;;;;;;;;;;;13.80;99.90;;;13.36;100.00;99625.72;5054383;28;19928;-61
2021/04/27 00:16:21;;;;;;;;;;;13.80;99.90;;;13.29;100.00;99621.97;5054372;28;19947;-61
2021/04/27 00:18:49;;;;;;;;;;;13.80;99.90;;;13.27;100.00;99627.75;5054192;28;20389;-62
2021/04/27 00:21:16;;;;;;;;;;;13.80;99.90;;;13.24;100.00;99622.97;5053152;28;20342;-62
2021/04/27 00:23:44;;;;;;;;;;;13.80;99.90;;;13.17;100.00;99628.16;5053660;28;19971;-62
2021/04/27 00:26:11;;;;;;;;;;;13.70;99.90;;;13.10;100.00;99628.69;5054116;28;20368;-61
2021/04/27 00:28:38;;;;;;;;;;;13.60;99.90;;;13.08;100.00;99622.81;5053999;28;20353;-62
2021/04/27 00:31:05;;;;;;;;;;;13.60;99.90;;;13.03;100.00;99623.00;5052227;28;19926;-61
2021/04/27 00:33:32;;;;;;;;;;;13.50;99.90;;;12.95;100.00;99618.44;5053699;28;19924;-61
2021/04/27 00:36:00;;;;;;;;;;;13.50;99.90;;;12.90;100.00;99624.09;5054081;28;19925;-61
2021/04/27 00:38:28;;;;;;;;;;;13.50;99.90;;;12.91;100.00;99625.69;5054118;28;20031;-61
2021/04/27 00:40:56;;;;;;;;;;;13.40;99.90;;;12.86;100.00;99616.94;5052707;28;20372;-61
2021/04/27 00:43:23;;;;;;;;;;;13.40;99.90;;;12.87;100.00;99619.31;5053076;28;20039;-61
2021/04/27 00:45:50;;;;;;;;;;;13.40;99.90;;;12.90;100.00;99632.22;5053880;28;19964;-62
2021/04/27 00:48:17;;;;;;;;;;;13.40;99.90;;;12.82;100.00;99627.69;5053961;28;19956;-62
2021/04/27 00:50:44;;;;;;;;;;;13.30;99.90;;;12.75;100.00;99629.34;5051775;28;19979;-62
2021/04/27 00:53:11;;;;;;;;;;;13.20;99.90;;;12.64;100.00;99625.44;5032766;28;19936;-61
2021/04/27 00:55:39;;;;;;;;;;;13.20;99.90;;;12.63;100.00;99623.84;5033693;28;19991;-61
2021/04/27 00:58:07;;;;;;;;;;;13.20;99.90;;;12.63;100.00;99621.13;5033711;28;20015;-62
2021/04/27 01:00:36;;;;;;;;;;;13.20;99.90;;;12.59;100.00;99621.00;5033065;28;19925;-61
2021/04/27 01:03:04;;;;;;;;;;;13.10;99.90;;;12.64;100.00;99623.53;5032524;28;20344;-61
2021/04/27 01:05:32;;;;;;;;;;;13.10;99.90;;;12.65;100.00;99621.59;5033611;28;20036;-61
2021/04/27 01:08:05;;;;;;;;;;;13.10;99.90;;;12.71;100.00;99629.19;5033501;28;19925;-62
2021/04/27 01:10:37;;;;;;;;;;;13.20;99.90;;;12.65;100.00;99627.00;5032725;28;19948;-62
2021/04/27 01:13:09;;;;;;;;;;;13.10;99.90;;;12.53;100.00;99635.88;5032240;28;19925;-61
2021/04/27 01:15:37;;;;;;;;;;;13.10;99.90;;;12.27;100.00;99638.00;5033430;28;20019;-62
2021/04/27 01:18:04;;;;;;;;;;;12.80;99.90;;;12.14;100.00;99628.19;5033322;28;19980;-62
2021/04/27 01:20:38;;;;;;;;;;;12.70;99.90;;;12.23;100.00;99618.88;5032637;28;20430;-62
2021/04/27 01:23:14;;;;;;;;;;;12.70;99.90;;;12.20;100.00;99619.56;5032205;28;19932;-62
2021/04/27 01:25:47;;;;;;;;;;;12.70;99.90;;;12.09;100.00;99618.34;5033045;28;20036;-62
2021/04/27 01:28:16;;;;;;;;;;;12.70;99.90;;;12.05;100.00;99614.72;5033206;28;19972;-62
2021/04/27 01:30:43;;;;;;;;;;;12.60;99.90;;;12.03;100.00;99623.19;5032377;28;19926;-62
2021/04/27 01:33:12;;;;;;;;;;;12.60;99.90;;;12.15;100.00;99627.88;5032536;28;19972;-62
2021/04/27 01:35:40;;;;;;;;;;;12.70;99.90;;;12.24;100.00;99630.53;5032928;28;20019;-62
2021/04/27 01:38:08;;;;;;;;;;;12.70;99.90;;;12.24;100.00;99627.81;5033068;28;19925;-62
2021/04/27 01:40:35;;;;;;;;;;;12.80;99.90;;;12.20;100.00;99621.47;5032181;28;19964;-62
2021/04/27 01:43:04;;;;;;;;;;;12.80;99.90;;;12.19;100.00;99617.94;5031172;28;19921;-62
2021/04/27 01:45:32;;;;;;;;;;;12.70;99.90;;;12.16;100.00;99621.31;5050234;28;20287;-62
2021/04/27 01:48:00;;;;;;;;;;;12.60;99.90;;;12.13;100.00;99623.91;5052543;28;19971;-62
2021/04/27 01:50:28;;;;;;;;;;;12.70;99.90;;;12.19;100.00;99614.47;5052125;28;19971;-62
2021/04/27 01:52:56;;;;;;;;;;;12.70;99.90;;;12.30;100.00;99610.25;5051798;28;19974;-62
2021/04/27 01:55:24;;;;;;;;;;;12.80;99.90;;;12.34;100.00;99619.31;5052647;28;19971;-62
2021/04/27 01:57:51;;;;;;;;;;;12.90;99.90;;;12.24;100.00;99611.56;5052544;28;19980;-62
2021/04/27 02:00:21;;;;;;;;;;;12.80;99.90;;;12.15;100.00;99625.16;5052098;28;20014;-62
2021/04/27 02:02:50;;;;;;;;;;;12.70;99.90;;;12.19;100.00;99625.31;5051484;28;20023;-62
2021/04/27 02:05:20;;;;;;;;;;;12.70;99.90;;;12.23;100.00;99621.59;5052590;28;20398;-62
2021/04/27 02:07:47;;;;;;;;;;;12.70;99.90;;;12.20;100.00;99618.75;5052459;28;20407;-62
2021/04/27 02:10:15;;;;;;;;;;;12.60;99.90;;;12.18;100.00;99623.72;5052124;28;19924;-62
2021/04/27 02:12:46;;;;;;;;;;;12.60;99.90;;;12.11;100.00;99609.88;5051455;28;19968;-62
2021/04/27 02:15:14;;;;;;;;;;;12.60;99.90;;;12.26;100.00;99609.31;5052368;28;20383;-62
2021/04/27 02:17:45;;;;;;;;;;;12.70;99.90;;;12.34;100.00;99611.94;5052284;28;19925;-62
2021/04/27 02:20:14;;;;;;;;;;;12.80;99.90;;;12.40;100.00;99610.63;5052159;28;19976;-61
2021/04/27 02:22:42;;;;;;;;;;;12.90;99.90;;;12.32;100.00;99603.38;5051103;28;19952;-62
2021/04/27 02:25:12;;;;;;;;;;;12.90;99.90;;;12.18;100.00;99604.75;5052430;28;19924;-62
2021/04/27 02:27:42;;;;;;;;;;;12.80;99.90;;;12.05;100.00;99604.66;5052054;28;19978;-62
2021/04/27 02:30:11;;;;;;;;;;;12.70;99.90;;;12.03;100.00;99601.50;5052140;28;19995;-61
2021/04/27 02:32:39;;;;;;;;;;;12.60;99.90;;;12.04;100.00;99608.50;5050662;28;19924;-62
2021/04/27 02:35:09;;;;;;;;;;;12.60;99.90;;;12.01;100.00;99609.16;5052465;28;19932;-61
2021/04/27 02:37:37;;;;;;;;;;;12.50;99.90;;;11.99;100.00;99616.03;5051734;28;19975;-62
2021/04/27 02:40:06;;;;;;;;;;;12.50;99.90;;;12.00;100.00;99606.78;5051840;28;19996;-62
2021/04/27 02:42:35;;;;;;;;;;;12.50;99.90;;;12.05;100.00;99604.66;5050068;28;20421;-62
2021/04/27 02:45:02;;;;;;;;;;;12.60;99.90;;;12.10;100.00;99611.78;5052141;28;19980;-62
2021/04/27 02:47:29;;;;;;;;;;;12.60;99.90;;;12.27;100.00;99603.56;5051964;28;20348;-61
2021/04/27 02:49:56;;;;;;;;;;;12.80;99.90;;;12.29;100.00;99604.03;5051786;28;19948;-62
2021/04/27 02:52:23;;;;;;;;;;;12.80;99.90;;;12.18;100.00;99613.69;5050842;28;19960;-62
2021/04/27 02:54:51;;;;;;;;;;;12.80;99.90;;;12.20;100.00;99611.41;5053911;28;19935;-61
2021/04/27 02:57:18;;;;;;;;;;;12.80;99.90;;;12.16;100.00;99609.72;5055947;28;19975;-62
2021/04/27 02:59:46;;;;;;;;;;;12.70;99.90;;;12.06;100.00;99616.31;5055613;28;19925;-61
2021/04/27 03:02:13;;;;;;;;;;;12.70;99.90;;;11.93;100.00;99611.91;5054383;28;20393;-61
2021/04/27 03:04:40;;;;;;;;;;;;;;;11.79;100.00;99612.16;5055704;28;19986;-62
2021/04/27 03:07:07;;;;;;;;;;;12.40;99.90;;;11.75;100.00;99611.22;5055668;28;19952;-61
2021/04/27 03:09:34;;;;;;;;;;;12.30;99.90;;;11.80;100.00;99610.22;5055613;28;19925;-62
2021/04/27 03:12:04;;;;;;;;;;;12.30;99.90;;;11.85;100.00;99605.44;5054180;28;19956;-62
2021/04/27 03:14:32;;;;;;;;;;;12.40;99.90;;;11.88;100.00;99615.63;5055459;28;19928;-61
2021/04/27 03:16:59;;;;;;;;;;;12.40;99.90;;;11.96;100.00;99617.47;5055507;28;19924;-61
2021/04/27 03:19:26;;;;;;;;;;;12.50;99.90;;;12.05;100.00;99614.72;5055475;28;19925;-62
2021/04/27 03:21:53;;;;;;;;;;;12.50;99.90;;;12.12;100.00;99615.00;5053722;28;20032;-62
2021/04/27 03:24:20;;;;;;;;;;;12.60;99.90;;;12.18;100.00;99627.22;5055298;28;19925;-62
2021/04/27 03:26:47;;;;;;;;;;;12.60;99.90;;;12.21;100.00;99618.44;5055355;28;19976;-62
2021/04/27 03:29:15;;;;;;;;;;;12.70;99.90;;;12.23;100.00;99615.38;5054900;28;20318;-62
2021/04/27 03:31:42;;;;;;;;;;;12.60;99.90;;;12.22;100.00;99617.28;5053716;28;19928;-62
2021/04/27 03:34:10;;;;;;;;;;;12.70;99.90;;;12.22;100.00;99613.81;5054902;28;20348;-62
2021/04/27 03:36:37;;;;;;;;;;;12.60;99.90;;;12.23;100.00;99607.25;5055086;28;20027;-62
2021/04/27 03:39:04;;;;;;;;;;;12.60;99.90;;;12.18;100.00;99618.28;5055207;28;20023;-62
2021/04/27 03:41:31;;;;;;;;;;;12.60;99.90;;;12.07;100.00;99619.81;5053715;28;19929;-62
2021/04/27 03:43:58;;;;;;;;;;;12.60;99.90;;;11.98;100.00;99622.56;5054512;28;19979;-62
2021/04/27 03:46:26;;;;;;;;;;;12.50;99.90;;;11.95;100.00;99620.50;5054855;28;19971;-61
2021/04/27 03:48:54;;;;;;;;;;;12.50;99.90;;;11.94;100.00;99630.56;5054865;28;19974;-62
2021/04/27 03:51:21;;;;;;;;;;;12.50;99.90;;;11.93;100.00;99634.38;5053837;28;19956;-61
2021/04/27 03:53:48;;;;;;;;;;;12.50;99.90;;;11.98;100.00;99638.81;5054388;28;19994;-62
2021/04/27 03:56:16;;;;;;;;;;;12.50;99.90;;;12.02;100.00;99637.03;5054709;28;19925;-62
2021/04/27 03:58:43;;;;;;;;;;;12.50;99.90;;;12.00;100.00;99637.38;5054584;28;19956;-62
2021/04/27 04:01:10;;;;;;;;;;;12.60;99.90;;;12.01;100.00;99638.94;5053685;28;20422;-62
2021/04/27 04:03:39;;;;;;;;;;;12.50;99.90;;;12.03;100.00;99631.31;5054180;28;19987;-61
2021/04/27 04:06:07;;;;;;;;;;;12.50;99.90;;;12.04;100.00;99637.50;5053649;28;19925;-62
2021/04/27 04:08:35;;;;;;;;;;;12.50;99.90;;;12.03;100.00;99636.72;5054479;28;20470;-61
2021/04/27 04:11:02;;;;;;;;;;;12.50;99.90;;;12.04;100.00;99641.00;5053632;28;20001;-62
2021/04/27 04:13:29;;;;;;;;;;;12.50;99.90;;;12.07;100.00;99640.34;5053929;28;19987;-62
2021/04/27 04:15:56;;;;;;;;;;;12.50;99.90;;;12.03;100.00;99650.28;5054559;28;19932;-62
2021/04/27 04:18:23;;;;;;;;;;;12.50;99.90;;;11.97;100.00;99645.38;5054528;28;20027;-61
2021/04/27 04:20:52;;;;;;;;;;;12.40;99.90;;;11.97;100.00;99653.50;5053168;28;20402;-62
2021/04/27 04:23:20;;;;;;;;;;;12.40;99.90;;;11.98;100.00;99646.94;5045679;28;20296;-62
2021/04/27 04:25:47;;;;;;;;;;;12.40;99.90;;;11.99;100.00;99645.81;5034470;28;20385;-62
2021/04/27 04:28:14;;;;;;;;;;;12.40;99.90;;;11.95;100.00;99655.72;5034214;28;19995;-61
2021/04/27 04:30:41;;;;;;;;;;;12.40;99.90;;;11.92;100.00;99649.03;5033754;28;20016;-62
2021/04/27 04:33:08;;;;;;;;;;;12.30;99.90;;;11.96;100.00;99655.41;5033303;28;19944;-62
2021/04/27 04:35:37;;;;;;;;;;;12.40;99.90;;;11.99;100.00;99645.81;5034163;28;20416;-62
2021/04/27 04:38:05;;;;;;;;;;;12.40;99.90;;;11.94;100.00;99649.53;5034247;28;20471;-62
2021/04/27 04:40:32;;;;;;;;;;;12.40;99.90;;;11.90;100.00;99645.88;5033672;28;20029;-62
2021/04/27 04:42:59;;;;;;;;;;;12.40;99.90;;;11.90;100.00;99654.00;5033107;28;20063;-62
2021/04/27 04:45:27;;;;;;;;;;;12.30;99.90;;;11.87;100.00;99646.53;5033725;28;20011;-62
2021/04/27 04:47:54;;;;;;;;;;;12.30;99.90;;;11.84;100.00;99649.88;5034026;28;19936;-62
2021/04/27 04:50:21;;;;;;;;;;;12.30;99.90;;;11.88;100.00;99650.03;5033627;28;20407;-62
2021/04/27 04:52:49;;;;;;;;;;;12.30;99.90;;;11.94;100.00;99646.81;5032831;28;19975;-62
2021/04/27 04:55:18;;;;;;;;;;;12.40;99.90;;;11.99;100.00;99643.91;5033658;28;19983;-61
2021/04/27 04:57:46;;;;;;;;;;;12.40;99.90;;;12.05;100.00;99652.63;5033714;28;19925;-62
2021/04/27 05:00:15;;;;;;;;;;;12.50;99.90;;;12.09;100.00;99650.88;5033461;28;20467;-62
2021/04/27 05:02:42;;;;;;;;;;;12.60;99.90;;;12.25;100.00;99657.28;5032598;28;19929;-62
2021/04/27 05:05:11;;;;;;;;;;;12.70;99.90;;;12.37;100.00;99657.38;5033329;28;20368;-62
2021/04/27 05:07:42;;;;;;;;;;;12.90;99.90;;;12.49;100.00;99662.88;5033400;28;19964;-62
2021/04/27 05:10:11;;;;;;;;;;;13.00;99.90;;;12.62;100.00;99655.59;5033439;28;19932;-61
2021/04/27 05:12:39;;;;;;;;;;;13.20;99.90;;;12.70;100.00;99662.09;5032304;28;19972;-62
2021/04/27 05:15:07;;;;;;;;;;;13.30;99.90;;;12.77;100.00;99667.75;5033043;28;19968;-62
2021/04/27 05:17:34;;;;;;;;;;;13.30;99.90;;;12.80;100.00;99665.19;5044907;28;19971;-62
2021/04/27 05:20:03;;;;;;;;;;;13.40;99.90;;;12.76;100.00;99664.28;5053028;28;20011;-62
2021/04/27 05:22:30;;;;;;;;;;;13.30;99.90;;;12.72;100.00;99665.25;5051744;28;19924;-61
2021/04/27 05:24:57;;;;;;;;;;;13.40;99.90;;;12.77;100.00;99665.03;5052836;28;20325;-62
2021/04/27 05:27:25;;;;;;;;;;;13.40;99.90;;;12.80;100.00;99662.47;5053086;28;19972;-62
2021/04/27 05:29:53;;;;;;;;;;;13.40;99.90;;;12.81;100.00;99666.78;5052923;28;20153;-61
2021/04/27 05:32:20;;;;;;;;;;;13.40;99.90;;;12.86;100.00;99663.84;5051982;28;19925;-62
2021/04/27 05:34:47;;;;;;;;;;;13.50;99.90;;;12.93;100.00;99668.75;5052706;28;19971;-61
2021/04/27 05:37:15;;;;;;;;;;;13.50;99.90;;;12.98;100.00;99676.69;5053180;28;19932;-61
2021/04/27 05:39:42;;;;;;;;;;;13.50;99.90;;;13.04;100.00;99684.28;5052995;28;19979;-62
2021/04/27 05:42:09;;;;;;;;;;;13.60;99.90;;;13.07;100.00;99691.00;5051847;28;19956;-62
2021/04/27 05:44:36;;;;;;;;;;;13.60;99.90;;;13.08;100.00;99696.09;5052366;28;20070;-62
2021/04/27 05:47:04;;;;;;;;;;;13.60;99.90;;;13.12;100.00;99686.19;5052920;28;19932;-62
2021/04/27 05:49:31;;;;;;;;;;;13.70;99.90;;;13.19;100.00;99695.69;5052634;28;19928;-62
2021/04/27 05:51:59;;;;;;;;;;;13.70;99.90;;;13.26;100.00;99694.00;5051476;28;20051;-61
2021/04/27 05:54:26;;;;;;;;;;;13.80;99.90;;;13.33;100.00;99701.63;5052316;28;20279;-62
2021/04/27 05:56:53;;;;;;;;;;;13.90;99.90;;;13.39;100.00;99703.78;5052571;28;19968;-62
2021/04/27 05:59:20;;;;;;;;;;;14.00;99.90;;;13.42;100.00;99705.03;5052636;28;19963;-61
2021/04/27 06:01:49;;;;;;;;;;;14.00;99.90;;;13.49;100.00;99705.28;5051349;28;20399;-62
2021/04/27 06:04:17;;;;;;;;;;;14.10;99.90;;;13.54;100.00;99707.78;5052007;28;19978;-62
2021/04/27 06:06:44;;;;;;;;;;;14.10;99.90;;;13.59;100.00;99707.56;5052538;28;19974;-62
2021/04/27 06:09:13;;;;;;;;;;;14.20;99.90;;;13.61;100.00;99706.13;5052412;28;20387;-62
2021/04/27 06:11:40;;;;;;;;;;;14.20;99.90;;;13.59;100.00;99711.06;5050925;28;19925;-62
2021/04/27 06:14:07;;;;;;;;;;;14.20;99.90;;;13.63;100.00;99712.00;5052176;28;19979;-62
2021/04/27 06:16:35;;;;;;;;;;;14.20;99.90;;;13.72;100.00;99713.81;5034685;28;19968;-62
2021/04/27 06:19:02;;;;;;;;;;;14.30;99.90;;;13.79;100.00;99711.34;5034825;28;19924;-62
2021/04/27 06:21:30;;;;;;;;;;;14.30;99.90;;;13.82;100.00;99719.63;5051075;28;19925;-62
2021/04/27 06:23:57;;;;;;;;;;;14.40;99.90;;;13.88;100.00;99715.56;5051943;28;20402;-62
2021/04/27 06:26:25;;;;;;;;;;;14.40;99.90;;;13.92;100.00;99719.16;5052218;28;20019;-62
2021/04/27 06:28:52;;;;;;;;;;;14.40;99.90;;;13.95;100.00;99729.34;5052824;28;20016;-61
2021/04/27 06:31:19;;;;;;;;;;;14.50;99.90;;;13.98;100.00;99722.47;5055296;28;19968;-61
2021/04/27 06:33:46;;;;;;;;;;;14.50;99.90;;;14.02;100.00;99728.81;5055856;28;19986;-62
2021/04/27 06:36:14;;;;;;;;;;;14.50;99.90;;;14.03;100.00;99731.19;5056216;28;19979;-61
2021/04/27 06:38:43;;;;;;;;;;;14.60;99.90;;;14.13;100.00;99730.72;5038871;28;19956;-61
2021/04/27 06:41:10;;;;;;;;;;;14.70;99.90;;;14.49;100.00;99737.34;5037457;28;20042;-62
2021/04/27 06:43:38;;;;;;;;;;;14.90;99.90;;;14.60;100.00;99738.44;5055628;28;20372;-61
2021/04/27 06:46:05;;;;;;;;;;;15.10;99.90;;;14.59;100.00;99740.38;5037999;28;20276;-62
2021/04/27 06:48:34;;;;;;;;;;;15.20;99.90;;;15.00;100.00;99743.94;5022169;28;19932;-62
2021/04/27 06:51:02;;;;;;;;;;;;;;;16.84;100.00;99738.56;5037881;28;19928;-62
2021/04/27 06:53:29;;;;;;;;;;;16.70;99.90;;;18.75;91.10;99739.31;5055623;28;20348;-62
2021/04/27 06:55:58;;;;;;;;;;;19.60;99.90;;;20.12;81.81;99721.66;5055800;28;19958;-62
2021/04/27 06:58:25;;;;;;;;;;;20.50;99.90;;;20.95;75.96;99737.53;5038241;28;20035;-62
2021/04/27 07:00:52;;;;;;;;;;;20.80;99.90;;;20.22;78.86;99733.88;5055049;28;20303;-62
2021/04/27 07:03:20;;;;;;;;;;;20.70;99.90;;;19.78;81.56;99735.84;5054681;28;19925;-62
2021/04/27 07:05:47;;;;;;;;;;;20.90;99.90;;;19.88;81.93;99733.19;5055779;28;19975;-62
2021/04/27 07:08:14;;;;;;;;;;;21.00;99.90;;;19.99;79.76;99733.31;5055649;28;19929;-62
2021/04/27 07:10:41;;;;;;;;;;;20.90;99.90;;;20.06;78.89;99730.63;5055346;28;20406;-63
2021/04/27 07:13:09;;;;;;;;;;;20.70;99.90;;;20.19;80.15;99729.94;5054621;28;20027;-62
2021/04/27 07:15:36;;;;;;;;;;;20.70;99.90;;;20.11;77.39;99728.31;5055640;28;20380;-62
2021/04/27 07:18:04;;;;;;;;;;;20.50;99.90;;;20.00;77.25;99738.41;5055795;28;20027;-62
2021/04/27 07:20:31;;;;;;;;;;;20.30;99.90;;;19.86;77.78;99740.22;5055156;28;19976;-62
2021/04/27 07:22:59;;;;;;;;;;;20.10;99.90;;;19.70;78.76;99747.94;5054322;28;20015;-62
2021/04/27 07:25:26;;;;;;;;;;;19.90;99.90;;;19.39;81.06;99740.91;5055356;28;19924;-62
2021/04/27 07:27:53;;;;;;;;;;;19.70;99.90;;;19.08;82.64;99747.56;5055322;28;20027;-61
2021/04/27 07:30:23;;;;;;;;;;;19.30;99.90;;;18.79;84.38;99753.81;5055141;28;20343;-62
2021/04/27 07:32:51;;;;;;;;;;;19.10;99.90;;;18.76;86.82;99757.28;5054230;28;19963;-62
2021/04/27 07:35:19;;;;;;;;;;;19.10;99.90;;;18.80;85.94;99755.41;5037756;28;19937;-62
2021/04/27 07:37:46;;;;;;;;;;;19.00;99.90;;;18.86;87.76;99753.91;5055076;28;20379;-62
2021/04/27 07:40:14;;;;;;;;;;;19.10;99.90;;;19.02;87.79;99762.75;5054660;28;19975;-62
2021/04/27 07:42:42;;;;;;;;;;;19.50;99.90;;;19.37;87.74;99765.13;5053969;28;19970;-62
2021/04/27 07:45:11;;;;;;;;;;;19.70;99.90;;;19.18;85.08;99760.59;5055048;28;19932;-62
2021/04/27 07:47:39;;;;;;;;;;;19.70;99.90;;;18.90;88.46;99763.78;5055030;28;19964;-62
2021/04/27 07:50:08;;;;;;;;;;;19.50;99.90;;;18.45;89.83;99770.09;5054832;28;19979;-61
2021/04/27 07:52:39;;;;;;;;;;;19.20;99.90;;;18.01;93.03;99767.06;5053739;28;20016;-62
2021/04/27 07:55:08;;;;;;;;;;;18.80;99.90;;;18.27;93.76;99769.03;5054862;28;20379;-62
2021/04/27 07:57:37;;;;;;;;;;;18.80;99.90;;;18.40;94.34;99773.16;5054324;28;20015;-62
2021/04/27 08:00:06;;;;;;;;;;;18.90;99.90;;;18.15;96.48;99766.50;5054471;28;20074;-62
2021/04/27 08:02:33;;;;;;;;;;;18.70;99.90;;;17.74;96.44;99773.59;5053841;28;20452;-62
2021/04/27 08:05:01;;;;;;;;;;;18.30;99.90;;;17.40;97.94;99772.53;5036737;28;19972;-63
2021/04/27 08:07:29;;;;;;;;;;;18.10;99.90;;;17.26;100.00;99765.97;5054579;28;19932;-62
2021/04/27 08:09:56;;;;;;;;;;;18.20;99.90;;;17.81;100.00;99770.19;5054538;28;19924;-62
2021/04/27 08:12:23;;;;;;;;;;;18.60;99.90;;;18.79;98.41;99776.53;5053726;28;19962;-62
2021/04/27 08:14:50;;;;;;;;;;;18.90;99.90;;;19.51;93.78;99768.09;5054467;28;19991;-62
2021/04/27 08:17:17;;;;;;;;;;;19.60;99.90;;;19.53;92.02;99772.03;5036811;28;19960;-62
2021/04/27 08:19:47;;;;;;;;;;;19.90;99.90;;;19.03;90.25;99778.81;5054251;28;19925;-62
2021/04/27 08:22:16;;;;;;;;;;;19.50;99.90;;;18.53;94.14;99782.81;5053383;28;19979;-62
2021/04/27 08:24:45;;;;;;;;;;;;;;;18.25;97.53;99784.25;5054380;28;19999;-62
2021/04/27 08:27:13;;;;;;;;;;;18.90;99.90;;;18.27;97.84;99779.22;5054197;28;20320;-62
2021/04/27 08:29:41;;;;;;;;;;;18.90;99.90;;;18.76;95.66;99774.53;5054360;28;19956;-62
2021/04/27 08:32:08;;;;;;;;;;;;;;;18.46;94.28;99782.66;5053035;28;20017;-62
2021/04/27 08:34:35;;;;;;;;;;;19.10;99.90;;;18.03;95.03;99781.16;5054016;28;19971;-62
2021/04/27 08:37:03;;;;;;;;;;;18.70;99.90;;;17.84;97.08;99783.91;5054165;28;20347;-62
2021/04/27 08:39:31;;;;;;;;;;;18.40;99.90;;;17.65;99.96;99783.19;5036435;28;19964;-61
2021/04/27 08:41:58;;;;;;;;;;;18.40;99.90;;;17.35;99.92;99782.94;5052741;28;20336;-62
2021/04/27 08:44:25;;;;;;;;;;;18.10;99.90;;;17.13;100.00;99786.38;5053809;28;20384;-63
2021/04/27 08:46:53;;;;;;;;;;;17.90;99.90;;;17.02;100.00;99791.63;5053521;28;19983;-62
2021/04/27 08:49:20;;;;;;;;;;;17.80;99.90;;;16.91;100.00;99799.56;5053910;28;19952;-62
2021/04/27 08:51:47;;;;;;;;;;;17.70;99.90;;;16.91;100.00;99796.03;5051419;28;20020;-62
2021/04/27 08:54:15;;;;;;;;;;;17.60;99.90;;;16.97;100.00;99800.09;5053489;28;19973;-62
2021/04/27 08:56:43;;;;;;;;;;;17.60;99.90;;;17.08;100.00;99797.59;5053773;28;19930;-62
2021/04/27 08:59:10;;;;;;;;;;;17.70;99.90;;;17.24;100.00;99795.59;5053531;28;20364;-63
2021/04/27 09:01:37;;;;;;;;;;;17.80;99.90;;;17.32;100.00;99798.13;5052766;28;19936;-61
2021/04/27 09:04:05;;;;;;;;;;;17.90;99.90;;;17.47;100.00;99796.47;5053349;28;19976;-62
2021/04/27 09:06:33;;;;;;;;;;;18.00;99.90;;;17.54;100.00;99801.28;5053679;28;19975;-61
2021/04/27 09:09:00;;;;;;;;;;;18.10;99.90;;;17.90;100.00;99801.59;5035721;28;19924;-62
2021/04/27 09:11:33;;;;;;;;;;;18.40;99.90;;;17.88;100.00;99800.41;5052595;28;19925;-63
2021/04/27 09:14:16;;;;;;;;;;;18.50;99.90;;;17.58;99.61;99807.63;5050402;28;19964;-62
2021/04/27 09:16:48;;;;;;;;;;;18.30;99.90;;;17.32;100.00;99814.53;5053429;28;19929;-62
2021/04/27 09:19:38;;;;;;;;;;;18.00;99.90;;;17.49;100.00;99816.03;5053312;28;19924;-62
2021/04/27 09:22:08;;;;;;;;;;;18.10;99.90;;;17.64;100.00;99819.84;5052146;28;19924;-62
2021/04/27 09:24:38;;;;;;;;;;;18.60;99.90;;;18.37;100.00;99823.16;5053084;28;20020;-62
2021/04/27 09:27:06;;;;;;;;;;;18.70;99.90;;;18.90;94.63;99817.78;5053334;28;19925;-61
2021/04/27 09:29:36;;;;;;;;;;;19.40;99.90;;;19.30;90.01;99826.16;5053132;28;20311;-62
2021/04/27 09:32:04;;;;;;;;;;;19.60;99.90;;;18.96;89.85;99824.50;5052315;28;19929;-62
2021/04/27 09:34:32;;;;;;;;;;;19.50;99.90;;;18.26;91.41;99824.16;5052875;28;19979;-62
2021/04/27 09:37:00;;;;;;;;;;;19.00;99.90;;;17.74;91.33;99832.94;5052921;28;19925;-61
2021/04/27 09:39:34;;;;;;;;;;;18.50;99.90;;;17.37;94.78;99836.09;5052940;28;20446;-62
2021/04/27 09:42:07;;;;;;;;;;;18.10;99.90;;;17.12;96.85;99839.41;5051891;28;19979;-62
2021/04/27 09:44:40;;;;;;;;;;;17.80;99.90;;;17.11;97.33;99841.38;5051974;28;19968;-62
2021/04/27 09:47:13;;;;;;;;;;;17.70;99.90;;;17.24;98.54;99831.91;5035077;28;19932;-62
2021/04/27 09:49:40;;;;;;;;;;;18.20;99.90;;;17.76;98.67;99838.84;5052649;28;19952;-62
2021/04/27 09:52:09;;;;;;;;;;;18.60;99.90;;;18.31;94.19;99841.03;5051534;28;19931;-62
2021/04/27 09:55:05;;;;;;;;;;;18.70;99.90;;;18.89;91.45;99847.09;5052542;28;20019;-62
2021/04/27 09:57:33;;;;;;;;;;;19.20;99.90;;;18.95;90.00;99844.84;5052625;28;19925;-62
2021/04/27 10:00:27;;;;;;;;;;;19.40;99.90;;;18.89;91.27;99849.84;5052216;28;19940;-62
2021/04/27 10:02:55;;;;;;;;;;;19.50;99.90;;;19.02;92.13;99853.19;5051238;28;19933;-62
2021/04/27 10:05:23;;;;;;;;;;;19.60;99.90;;;19.28;88.46;99846.88;5051987;28;19963;-62
2021/04/27 10:07:50;;;;;;;;;;;20.00;99.90;;;19.59;87.89;99852.81;5052447;28;19931;-63
2021/04/27 10:10:19;;;;;;;;;;;20.10;99.90;;;19.59;88.36;99850.06;5034154;28;20410;-62
2021/04/27 10:12:48;;;;;;;;;;;20.20;99.90;;;19.46;86.40;99856.16;5051359;28;19971;-62
2021/04/27 10:15:15;;;;;;;;;;;;;;;19.71;88.52;99854.50;5052389;28;19964;-63
2021/04/27 10:17:43;;;;;;;;;;;20.30;99.90;;;19.39;85.42;99862.34;5052374;28;19974;-62
2021/04/27 10:20:13;;;;;;;;;;;20.10;99.90;;;19.24;87.44;99860.53;5051898;28;20336;-62
2021/04/27 10:22:42;;;;;;;;;;;19.90;99.90;;;19.22;87.35;99857.38;5051086;28;19964;-62
2021/04/27 10:25:14;;;;;;;;;;;19.90;99.90;;;19.27;84.93;99864.50;5052304;28;19979;-63
2021/04/27 10:27:41;;;;;;;;;;;19.90;99.90;;;19.24;85.45;99866.00;5052321;28;19932;-63
2021/04/27 10:30:32;;;;;;;;;;;19.80;99.90;;;19.52;85.36;99877.38;5051929;28;20023;-62
2021/04/27 10:33:18;;;;;;;;;;;20.00;99.90;;;19.80;79.48;99871.47;5050747;28;19920;-62
2021/04/27 10:36:08;;;;;;;;;;;20.30;99.90;;;19.78;82.16;99867.53;5034386;28;19932;-62
2021/04/27 10:38:45;;;;;;;;;;;20.30;99.90;;;19.85;79.04;99864.88;5034453;28;19931;-62
2021/04/27 10:41:15;;;;;;;;;;;20.40;99.90;;;19.74;77.82;99867.47;5033910;28;20015;-62
2021/04/27 10:43:45;;;;;;;;;;;20.30;99.90;;;19.80;78.58;99868.72;5033753;28;19979;-62
2021/04/27 10:46:44;;;;;;;;;;;20.30;99.90;;;19.91;80.88;99872.38;5052172;28;19925;-62
2021/04/27 10:49:19;;;;;;;;;;;20.40;99.90;;;19.98;80.46;99874.41;5051717;28;19925;-63
2021/04/27 10:51:47;;;;;;;;;;;20.50;99.90;;;19.92;80.01;99878.66;5050957;28;19925;-62
2021/04/27 10:54:20;;;;;;;;;;;20.50;99.90;;;20.06;80.14;99884.31;5051764;28;19974;-62
2021/04/27 10:56:49;;;;;;;;;;;20.60;99.90;;;20.22;80.61;99882.13;5034708;28;20015;-62
2021/04/27 10:59:17;;;;;;;;;;;20.80;99.90;;;20.33;76.14;99876.78;5017962;28;20411;-63
2021/04/27 11:01:46;;;;;;;;;;;20.90;99.90;;;19.98;77.24;99872.47;5050864;28;19982;-62
2021/04/27 11:04:34;;;;;;;;;;;20.60;99.90;;;19.81;75.15;99880.50;5051659;28;19970;-62
2021/04/27 11:07:37;;;;;;;;;;;20.40;99.90;;;19.96;79.37;99883.03;5051992;28;19994;-62
2021/04/27 11:10:32;;;;;;;;;;;20.50;99.90;;;19.92;79.01;99881.41;5046961;28;19986;-62
2021/04/27 11:13:08;;;;;;;;;;;20.60;99.90;;;20.08;77.63;99874.53;5050942;28;19925;-62
2021/04/27 11:15:37;;;;;;;;;;;20.60;99.90;;;20.10;76.00;99880.44;5053645;28;19925;-63
2021/04/27 11:18:09;;;;;;;;;;;20.70;99.90;;;20.07;73.70;99877.66;5055653;28;19925;-62
2021/04/27 11:20:56;;;;;;;;;;;;;;;20.04;74.15;99879.19;5054988;28;20011;-63
2021/04/27 11:23:53;;;;;;;;;;;20.60;99.90;;;19.92;74.85;99879.44;5054990;28;20287;-62